Time;durP1;ratioP1;P1;durP2;ratioP2;P2;SDS_P1;SDS_P2;PMS_P1;PMS_P2;Temp;Humidity;BMP_temperature;BMP_pressure;BME280_temperature;BME280_humidity;BME280_pressure;Samples;Min_cycle;Max_cycle;Signal;HPM_P1;HPM_P2
2021/11/10 00:00:23;;;;;;;163.95;88.97;;;230.50;1843.20;;;;;;4899932;29;20052;-63
2021/11/10 00:02:48;;;;;;;161.52;88.32;;;230.60;1843.20;;;;;;4899809;29;20064;-63
2021/11/10 00:05:17;;;;;;;156.80;86.63;;;230.50;1843.20;;;;;;4899689;29;20083;-63
2021/11/10 00:07:43;;;;;;;146.32;81.35;;;230.50;1843.20;;;;;;4899738;29;20020;-63
2021/11/10 00:10:10;;;;;;;149.85;85.05;;;230.50;1843.20;;;;;;4899682;29;20111;-63
2021/11/10 00:12:37;;;;;;;152.90;84.68;;;230.40;1843.20;;;;;;4899738;29;20076;-63
2021/11/10 00:15:03;;;;;;;152.10;85.65;;;230.50;1843.20;;;;;;4899797;29;20040;-63
2021/11/10 00:17:29;;;;;;;146.65;85.07;;;230.50;1843.20;;;;;;4899064;29;20383;-63
2021/11/10 00:19:55;;;;;;;141.23;80.85;;;230.50;1843.20;;;;;;4899489;29;20039;-63
2021/11/10 00:22:21;;;;;;;146.75;81.03;;;230.50;1843.20;;;;;;4899371;29;20079;-63
2021/11/10 00:24:47;;;;;;;128.20;73.60;;;230.50;1843.20;;;;;;4899538;29;20025;-63
2021/11/10 00:27:13;;;;;;;129.85;69.28;;;230.40;1817.60;;;;;;4899644;29;20029;-63
2021/11/10 00:29:39;;;;;;;110.40;65.45;;;230.50;1843.20;;;;;;4899437;29;20493;-63
2021/11/10 00:32:05;;;;;;;102.57;59.55;;;230.50;1843.20;;;;;;4899510;29;20032;-64
2021/11/10 00:34:31;;;;;;;98.80;57.33;;;205.70;1843.20;;;;;;4899643;29;20451;-64
2021/11/10 00:36:56;;;;;;;94.20;54.10;;;230.40;1843.20;;;;;;4899861;29;20484;-63
2021/11/10 00:39:22;;;;;;;84.85;50.80;;;230.40;1843.20;;;;;;4899297;29;20028;-63
2021/11/10 00:41:48;;;;;;;81.13;48.30;;;230.40;1843.20;;;;;;4899690;29;20087;-62
2021/11/10 00:44:13;;;;;;;82.00;47.72;;;230.40;1843.20;;;;;;4898927;29;20096;-63
2021/11/10 00:46:39;;;;;;;70.68;43.92;;;230.40;1843.20;;;;;;4899165;29;20035;-63
2021/11/10 00:49:05;;;;;;;72.28;44.88;;;205.70;1843.20;;;;;;4898809;29;20029;-63
2021/11/10 00:51:31;;;;;;;71.70;43.80;;;230.40;1843.20;;;;;;4899370;29;20029;-63
2021/11/10 00:53:57;;;;;;;80.28;46.08;;;205.70;1843.20;;;;;;4899057;29;20471;-63
2021/11/10 00:56:23;;;;;;;80.10;48.28;;;205.70;1843.20;;;;;;4898857;29;20489;-63
2021/11/10 00:58:49;;;;;;;87.32;47.72;;;205.70;1868.80;;;;;;4898991;29;20029;-63
2021/11/10 01:01:15;;;;;;;92.70;50.38;;;205.70;1843.20;;;;;;4898893;29;20360;-63
2021/11/10 01:03:41;;;;;;;89.03;51.40;;;230.40;1868.80;;;;;;4898699;29;20033;-63
2021/11/10 01:06:07;;;;;;;90.57;51.63;;;230.40;1868.80;;;;;;4898349;29;20024;-63
2021/11/10 01:08:32;;;;;;;81.50;47.97;;;205.70;1868.80;;;;;;4898688;29;20028;-64
2021/11/10 01:10:59;;;;;;;77.55;47.03;;;205.70;1894.40;;;;;;4898752;29;20035;-63
2021/11/10 01:13:26;;;;;;;76.70;44.97;;;230.40;1894.40;;;;;;4898724;29;20032;-63
2021/11/10 01:15:52;;;;;;;75.70;42.70;;;230.40;1868.80;;;;;;4898717;29;20032;-63
2021/11/10 01:18:18;;;;;;;58.33;37.65;;;230.40;1894.40;;;;;;4898806;29;20112;-63
2021/11/10 01:20:44;;;;;;;55.28;34.63;;;205.70;1868.80;;;;;;4898321;29;20131;-63
2021/11/10 01:23:11;;;;;;;49.50;32.22;;;205.70;1894.40;;;;;;4898796;29;20476;-64
2021/11/10 01:25:38;;;;;;;50.22;32.85;;;205.70;1894.40;;;;;;4898308;29;20032;-63
2021/11/10 01:28:06;;;;;;;50.67;33.80;;;230.40;1894.40;;;;;;4898076;29;20033;-63
2021/11/10 01:30:32;;;;;;;49.28;33.60;;;230.40;1920.00;;;;;;4898683;29;20083;-63
2021/11/10 01:32:58;;;;;;;51.78;31.90;;;230.40;1894.40;;;;;;4898174;29;20021;-63
2021/11/10 01:35:24;;;;;;;52.75;32.53;;;205.70;1920.00;;;;;;4898419;29;20125;-62
2021/11/10 01:37:50;;;;;;;43.88;29.48;;;230.40;1920.00;;;;;;4898365;29;20089;-63
2021/11/10 01:40:18;;;;;;;49.08;30.75;;;205.70;1920.00;;;;;;4898553;29;20052;-63
2021/11/10 01:42:46;;;;;;;48.00;32.03;;;230.40;1920.00;;;;;;4898542;29;20479;-64
2021/11/10 01:45:15;;;;;;;47.83;30.25;;;230.40;1920.00;;;;;;4898474;29;20036;-62
2021/11/10 01:47:42;;;;;;;50.65;30.50;;;230.40;1920.00;;;;;;4898683;29;20029;-63
2021/11/10 01:50:11;;;;;;;47.90;30.45;;;230.40;1945.60;;;;;;4898268;29;20059;-64
2021/11/10 01:52:37;;;;;;;48.42;29.73;;;230.40;1920.00;;;;;;4898566;29;20032;-64
2021/11/10 01:55:04;;;;;;;42.80;26.77;;;205.70;1920.00;;;;;;4898185;29;20551;-63
2021/11/10 01:57:30;;;;;;;40.88;25.40;;;230.40;1920.00;;;;;;4898258;29;20040;-63
2021/11/10 02:00:19;;;;;;;40.08;23.92;;;230.40;1920.00;;;;;;4898019;29;20405;-64
2021/11/10 02:02:44;;;;;;;34.53;24.17;;;230.40;1920.00;;;;;;4898351;29;20029;-63
2021/11/10 02:05:13;;;;;;;32.80;22.67;;;230.40;1920.00;;;;;;4898172;29;20538;-63
2021/11/10 02:07:40;;;;;;;36.80;24.00;;;230.40;1894.40;;;;;;4898402;29;20052;-63
2021/11/10 02:10:09;;;;;;;33.83;23.83;;;230.40;1920.00;;;;;;4898210;29;20025;-63
2021/11/10 02:12:36;;;;;;;32.40;21.75;;;230.40;1920.00;;;;;;4898099;29;20029;-62
2021/11/10 02:15:07;;;;;;;32.08;21.75;;;230.40;1920.00;;;;;;4898191;29;20119;-63
2021/11/10 02:17:35;;;;;;;34.20;22.70;;;230.50;1920.00;;;;;;4898092;29;20044;-63
2021/11/10 02:20:02;;;;;;;35.53;23.17;;;230.50;1894.40;;;;;;4897935;29;20052;-63
2021/11/10 02:22:28;;;;;;;34.33;22.85;;;230.50;1920.00;;;;;;4897857;29;20076;-63
2021/11/10 02:24:55;;;;;;;32.80;21.73;;;230.50;1894.40;;;;;;4897618;29;20427;-63
2021/11/10 02:27:27;;;;;;;35.85;21.33;;;230.40;1894.40;;;;;;4898105;29;20115;-63
2021/11/10 02:29:53;;;;;;;29.73;20.17;;;230.40;1920.00;;;;;;4897773;29;20092;-63
2021/11/10 02:32:20;;;;;;;36.38;21.60;;;230.40;1920.00;;;;;;4898127;29;20111;-63
2021/11/10 02:34:47;;;;;;;33.47;22.20;;;230.40;1920.00;;;;;;4897737;29;20032;-63
2021/11/10 02:37:17;;;;;;;36.95;23.65;;;230.50;1920.00;;;;;;4897695;29;20076;-63
2021/11/10 02:39:44;;;;;;;32.08;20.92;;;230.40;1920.00;;;;;;4897350;29;20031;-63
2021/11/10 02:42:10;;;;;;;28.80;19.95;;;230.40;1945.60;;;;;;4900826;29;20479;-63
2021/11/10 02:44:35;;;;;;;28.13;19.10;;;230.40;1920.00;;;;;;4901577;29;20116;-63
2021/11/10 02:47:04;;;;;;;27.40;18.70;;;205.70;1920.00;;;;;;4900743;29;20032;-63
2021/11/10 02:49:29;;;;;;;24.13;17.13;;;205.70;1945.60;;;;;;4884035;29;20410;-64
2021/11/10 02:52:03;;;;;;;23.63;18.27;;;230.40;1920.00;;;;;;4901316;29;20032;-64
2021/11/10 02:54:34;;;;;;;24.70;17.75;;;205.70;1920.00;;;;;;4901278;29;20055;-63
2021/11/10 02:57:02;;;;;;;22.83;17.10;;;205.70;1920.00;;;;;;4900863;29;20399;-64
2021/11/10 02:59:28;;;;;;;23.88;17.15;;;230.40;1894.40;;;;;;4901048;29;20048;-63
2021/11/10 03:01:55;;;;;;;24.08;17.35;;;205.70;1894.40;;;;;;4900779;29;20474;-64
2021/11/10 03:04:24;;;;;;;23.38;17.33;;;205.70;1894.40;;;;;;4901184;29;20104;-63
2021/11/10 03:06:52;;;;;;;23.77;17.52;;;205.70;1894.40;;;;;;4900892;29;20129;-63
2021/11/10 03:09:23;;;;;;;25.90;18.35;;;205.70;1894.40;;;;;;4900544;29;20028;-63
2021/11/10 03:11:52;;;;;;;28.40;19.45;;;205.70;1894.40;;;;;;4900730;29;20039;-63
2021/11/10 03:14:18;;;;;;;25.73;18.02;;;205.70;1894.40;;;;;;4900716;29;20111;-63
2021/11/10 03:16:44;;;;;;;26.98;17.58;;;205.70;1894.40;;;;;;4900803;29;20062;-64
2021/11/10 03:19:10;;;;;;;21.45;15.77;;;230.40;1894.40;;;;;;4900177;29;20379;-63
2021/11/10 03:21:36;;;;;;;22.42;16.55;;;230.40;1894.40;;;;;;4900322;29;20060;-63
2021/11/10 03:24:02;;;;;;;20.50;15.57;;;230.50;1894.40;;;;;;4900595;29;20029;-64
2021/11/10 03:26:28;;;;;;;19.58;14.50;;;230.40;1868.80;;;;;;4899983;29;20052;-63
2021/11/10 03:28:54;;;;;;;18.23;14.60;;;230.40;1894.40;;;;;;4899947;29;20408;-63
2021/11/10 03:31:20;;;;;;;19.50;15.85;;;230.50;1868.80;;;;;;4900534;29;20032;-63
2021/11/10 03:33:46;;;;;;;18.70;15.23;;;230.40;1894.40;;;;;;4900237;29;20092;-63
2021/11/10 03:36:12;;;;;;;20.10;15.90;;;205.70;1894.40;;;;;;4900302;29;20432;-63
2021/11/10 03:38:37;;;;;;;21.00;15.85;;;230.40;1868.80;;;;;;4900321;29;20506;-63
2021/11/10 03:41:03;;;;;;;22.95;15.25;;;230.40;1945.60;;;;;;4900279;29;20622;-63
2021/11/10 03:43:29;;;;;;;20.17;15.82;;;230.40;1945.60;;;;;;4900701;29;20087;-63
2021/11/10 03:45:55;;;;;;;22.42;16.02;;;230.40;1920.00;;;;;;4899947;29;20033;-64
2021/11/10 03:48:21;;;;;;;19.17;15.25;;;205.70;1945.60;;;;;;4900262;29;20037;-64
2021/11/10 03:50:47;;;;;;;21.73;15.13;;;230.40;1894.40;;;;;;4899861;29;20142;-64
2021/11/10 03:53:13;;;;;;;20.83;14.85;;;230.40;1920.00;;;;;;4899971;29;20463;-63
2021/11/10 03:55:40;;;;;;;19.05;14.90;;;230.40;1894.40;;;;;;4900025;29;20036;-63
2021/11/10 03:58:10;;;;;;;20.38;15.32;;;230.40;1894.40;;;;;;4899642;29;20493;-63
2021/11/10 04:00:36;;;;;;;19.05;15.00;;;230.40;1920.00;;;;;;4899824;29;20029;-64
2021/11/10 04:03:02;;;;;;;21.10;16.90;;;230.50;1894.40;;;;;;4899778;29;20039;-64
2021/11/10 04:05:28;;;;;;;27.67;17.98;;;230.40;1920.00;;;;;;4899330;29;20036;-63
2021/11/10 04:07:55;;;;;;;28.60;19.73;;;205.70;1971.20;;;;;;4899789;29;20458;-63
2021/11/10 04:10:21;;;;;;;63.00;22.63;;;205.70;1945.60;;;;;;4900001;29;20028;-63
2021/11/10 04:12:47;;;;;;;43.05;20.92;;;230.40;2124.80;;;;;;4900316;29;20032;-64
2021/11/10 04:15:13;;;;;;;36.08;21.48;;;230.50;1996.80;;;;;;4899366;29;20486;-63
2021/11/10 04:17:39;;;;;;;34.42;20.83;;;230.40;1971.20;;;;;;4899353;29;20043;-63
2021/11/10 04:20:07;;;;;;;29.23;19.58;;;230.40;1971.20;;;;;;4899656;29;20029;-63
2021/11/10 04:22:33;;;;;;;33.55;21.58;;;205.70;1971.20;;;;;;4899264;29;20068;-64
2021/11/10 04:24:59;;;;;;;32.10;21.42;;;205.60;1996.80;;;;;;4899507;29;20179;-63
2021/11/10 04:27:24;;;;;;;25.65;19.67;;;205.50;1971.20;;;;;;4899398;29;20534;-63
2021/11/10 04:29:51;;;;;;;28.80;18.83;;;205.50;1996.80;;;;;;4899188;29;20021;-63
2021/11/10 04:32:18;;;;;;;28.38;18.73;;;205.50;1971.20;;;;;;4899462;29;20036;-63
2021/11/10 04:34:44;;;;;;;26.98;17.85;;;205.50;1996.80;;;;;;4899101;29;20152;-63
2021/11/10 04:37:12;;;;;;;26.08;18.38;;;205.50;1996.80;;;;;;4899192;29;20036;-63
2021/11/10 04:39:39;;;;;;;26.20;18.50;;;205.50;1996.80;;;;;;4899277;29;20032;-63
2021/11/10 04:42:08;;;;;;;25.55;18.42;;;205.60;1996.80;;;;;;4899156;29;20021;-63
2021/11/10 04:44:35;;;;;;;25.42;18.00;;;205.50;1971.20;;;;;;4899063;29;20036;-63
2021/11/10 04:47:01;;;;;;;22.90;17.27;;;205.50;1996.80;;;;;;4899283;29;20024;-63
2021/11/10 04:49:29;;;;;;;22.50;17.10;;;205.40;1996.80;;;;;;4898718;29;20088;-63
2021/11/10 04:51:58;;;;;;;24.30;17.52;;;205.30;1996.80;;;;;;4899044;29;20446;-63
2021/11/10 04:54:29;;;;;;;24.27;17.60;;;205.30;1996.80;;;;;;4899575;29;20442;-63
2021/11/10 04:56:56;;;;;;;24.15;17.95;;;205.30;1996.80;;;;;;4898936;29;20534;-63
2021/11/10 04:59:21;;;;;;;25.10;18.15;;;205.20;1996.80;;;;;;4899529;29;20033;-63
2021/11/10 05:02:23;;;;;;;24.45;18.60;;;205.20;1996.80;;;;;;4898989;29;20021;-63
2021/11/10 05:04:48;;;;;;;26.65;18.63;;;205.20;1996.80;;;;;;4898350;29;20051;-63
2021/11/10 05:07:16;;;;;;;25.52;18.80;;;205.20;1996.80;;;;;;4898828;29;20024;-64
2021/11/10 05:09:41;;;;;;;26.55;18.65;;;205.20;1996.80;;;;;;4898695;29;20032;-63
2021/11/10 05:12:08;;;;;;;27.67;20.48;;;205.20;1996.80;;;;;;4898635;29;20431;-63
2021/11/10 05:14:33;;;;;;;27.60;20.00;;;205.10;1996.80;;;;;;4898532;29;20040;-63
2021/11/10 05:16:59;;;;;;;23.27;17.98;;;205.20;1996.80;;;;;;4899062;29;20040;-63
2021/11/10 05:19:25;;;;;;;25.50;18.45;;;205.20;1996.80;;;;;;4898492;29;20029;-63
2021/11/10 05:21:50;;;;;;;27.42;18.30;;;205.20;1996.80;;;;;;4898300;29;20052;-63
2021/11/10 05:24:16;;;;;;;24.08;16.95;;;205.10;1996.80;;;;;;4898490;29;20046;-63
2021/11/10 05:26:42;;;;;;;29.23;18.90;;;205.10;1996.80;;;;;;4898591;29;20043;-63
2021/11/10 05:29:08;;;;;;;24.40;17.73;;;205.10;1996.80;;;;;;4898393;29;20021;-63
2021/11/10 05:31:35;;;;;;;29.52;19.30;;;205.10;1996.80;;;;;;4898615;29;20033;-63
2021/11/10 05:34:01;;;;;;;27.38;18.63;;;205.10;1996.80;;;;;;4898491;29;20035;-64
2021/11/10 05:36:27;;;;;;;28.08;18.98;;;205.10;1996.80;;;;;;4898557;29;20051;-63
2021/11/10 05:38:53;;;;;;;33.58;21.60;;;205.10;1996.80;;;;;;4898339;29;20033;-63
2021/11/10 05:41:19;;;;;;;44.70;30.00;;;205.10;1996.80;;;;;;4898377;29;20088;-63
2021/11/10 05:43:45;;;;;;;49.20;34.63;;;205.10;1996.80;;;;;;4898326;29;20036;-63
2021/11/10 05:46:11;;;;;;;49.25;33.70;;;205.10;1996.80;;;;;;4898461;29;20432;-63
2021/11/10 05:48:37;;;;;;;42.97;28.50;;;205.10;1996.80;;;;;;4898187;29;20040;-63
2021/11/10 05:51:03;;;;;;;40.47;25.95;;;205.10;1996.80;;;;;;4898376;29;20048;-63
2021/11/10 05:53:30;;;;;;;38.47;24.27;;;205.10;1996.80;;;;;;4898460;29;20032;-63
2021/11/10 05:55:57;;;;;;;31.75;22.67;;;205.10;1996.80;;;;;;4898352;29;20033;-63
2021/11/10 05:58:28;;;;;;;33.22;22.27;;;205.00;2022.40;;;;;;4898527;29;20024;-63
2021/11/10 06:00:57;;;;;;;28.05;19.85;;;205.00;2022.40;;;;;;4898198;29;20474;-63
2021/11/10 06:03:23;;;;;;;30.23;19.02;;;205.10;1996.80;;;;;;4898310;29;20024;-63
2021/11/10 06:05:53;;;;;;;29.13;20.02;;;205.20;1996.80;;;;;;4898429;29;20033;-63
2021/11/10 06:08:20;;;;;;;31.88;21.00;;;205.20;1996.80;;;;;;4898217;29;20024;-63
2021/11/10 06:10:47;;;;;;;29.58;20.65;;;205.20;1996.80;;;;;;4898122;29;20059;-63
2021/11/10 06:13:13;;;;;;;30.00;20.17;;;205.20;1996.80;;;;;;4898138;29;20031;-63
2021/11/10 06:15:39;;;;;;;30.55;19.25;;;205.20;1996.80;;;;;;4900144;29;20413;-63
2021/11/10 06:18:07;;;;;;;28.23;19.85;;;205.20;1996.80;;;;;;4901641;29;20176;-63
2021/11/10 06:20:35;;;;;;;27.23;18.75;;;205.20;1996.80;;;;;;4901385;29;20072;-63
2021/11/10 06:23:02;;;;;;;32.55;19.98;;;205.20;1996.80;;;;;;4901713;29;20112;-63
2021/11/10 06:25:28;;;;;;;32.63;22.00;;;205.30;1971.20;;;;;;4901512;29;20490;-63
2021/11/10 06:27:54;;;;;;;40.40;25.42;;;205.30;1971.20;;;;;;4901615;29;20029;-63
2021/11/10 06:30:19;;;;;;;32.78;22.58;;;205.30;1971.20;;;;;;4901328;29;20036;-63
2021/11/10 06:32:45;;;;;;;32.47;22.45;;;205.30;1971.20;;;;;;4901571;29;20017;-63
2021/11/10 06:35:13;;;;;;;31.27;21.88;;;205.20;1971.20;;;;;;4901349;29;20060;-63
2021/11/10 06:37:39;;;;;;;32.22;20.88;;;205.20;1971.20;;;;;;4901271;29;20042;-63
2021/11/10 06:40:06;;;;;;;26.98;19.67;;;205.20;1971.20;;;;;;4901117;29;20025;-63
2021/11/10 06:42:31;;;;;;;29.95;20.50;;;205.20;1971.20;;;;;;4901310;29;20032;-63
2021/11/10 06:44:57;;;;;;;27.42;18.63;;;205.60;1971.20;;;;;;4901376;29;20417;-63
2021/11/10 06:47:24;;;;;;;32.92;20.40;;;205.20;1996.80;;;;;;4901315;29;20036;-63
2021/11/10 06:49:50;;;;;;;27.50;17.85;;;205.20;1971.20;;;;;;4901096;29;20035;-63
2021/11/10 06:52:16;;;;;;;25.23;17.02;;;205.30;1971.20;;;;;;4900789;29;20402;-63
2021/11/10 06:54:42;;;;;;;25.55;16.83;;;205.30;1996.80;;;;;;4901034;29;20037;-63
2021/11/10 06:57:07;;;;;;;23.80;16.65;;;205.40;1996.80;;;;;;4901184;29;20396;-63
2021/11/10 06:59:33;;;;;;;23.30;17.20;;;205.40;1996.80;;;;;;4901273;29;20025;-63
2021/11/10 07:01:59;;;;;;;25.85;17.58;;;205.50;1996.80;;;;;;4900828;29;20426;-63
2021/11/10 07:04:25;;;;;;;36.25;19.08;;;205.50;1996.80;;;;;;4900896;29;20032;-64
2021/11/10 07:06:51;;;;;;;42.35;21.38;;;205.70;1996.80;;;;;;4901047;29;20061;-63
2021/11/10 07:09:16;;;;;;;42.42;20.73;;;205.70;1971.20;;;;;;4900395;29;20111;-64
2021/11/10 07:11:42;;;;;;;35.25;18.90;;;230.40;1996.80;;;;;;4900935;29;20108;-63
2021/11/10 07:14:09;;;;;;;27.15;18.25;;;230.40;1996.80;;;;;;4900986;29;20025;-64
2021/11/10 07:16:35;;;;;;;30.20;16.83;;;230.40;1996.80;;;;;;4900740;29;20044;-63
2021/11/10 07:19:01;;;;;;;23.95;15.95;;;230.40;1996.80;;;;;;4900815;29;20028;-64
2021/11/10 07:21:27;;;;;;;22.73;15.65;;;230.50;1996.80;;;;;;4900337;29;20477;-63
2021/11/10 07:23:54;;;;;;;22.13;15.30;;;230.60;1996.80;;;;;;4900773;29;20107;-64
2021/11/10 07:26:20;;;;;;;19.83;13.85;;;230.70;1996.80;;;;;;4900633;29;20048;-63
2021/11/10 07:28:46;;;;;;;19.17;13.25;;;230.70;1996.80;;;;;;4900546;29;20071;-63
2021/11/10 07:31:11;;;;;;;17.50;13.32;;;230.80;1996.80;;;;;;4900567;29;20031;-64
2021/11/10 07:33:37;;;;;;;25.38;15.32;;;230.80;1996.80;;;;;;4900077;29;20024;-64
2021/11/10 07:36:04;;;;;;;28.83;18.67;;;230.90;1996.80;;;;;;4900266;29;20035;-63
2021/11/10 07:38:30;;;;;;;24.48;16.65;;;230.90;1996.80;;;;;;4900491;29;20036;-63
2021/11/10 07:40:56;;;;;;;21.58;14.05;;;231.00;1996.80;;;;;;4900423;29;20024;-63
2021/11/10 07:43:24;;;;;;;16.88;12.07;;;231.10;1996.80;;;;;;4900388;29;20031;-64
2021/11/10 07:45:57;;;;;;;17.20;13.10;;;231.10;1996.80;;;;;;4900382;29;20032;-64
2021/11/10 07:48:23;;;;;;;17.55;11.57;;;231.20;2022.40;;;;;;4900237;29;20029;-63
2021/11/10 07:50:49;;;;;;;16.60;11.38;;;231.30;2022.40;;;;;;4900081;29;20028;-64
2021/11/10 07:53:15;;;;;;;27.17;16.13;;;256.00;2022.40;;;;;;4899760;29;20028;-64
2021/11/10 07:55:41;;;;;;;38.03;21.08;;;256.10;2022.40;;;;;;4900284;29;20038;-63
2021/11/10 07:58:08;;;;;;;44.45;21.00;;;256.20;2022.40;;;;;;4899351;29;20356;-63
2021/11/10 08:00:37;;;;;;;32.60;16.67;;;256.30;2022.40;;;;;;4900171;29;20356;-64
2021/11/10 08:03:04;;;;;;;19.27;13.13;;;256.50;2022.40;;;;;;4899664;29;20039;-63
2021/11/10 08:05:29;;;;;;;17.20;11.90;;;256.60;2022.40;;;;;;4899779;29;20056;-64
2021/11/10 08:07:55;;;;;;;14.00;10.25;;;256.60;1996.80;;;;;;4899600;29;20467;-63
2021/11/10 08:10:21;;;;;;;13.32;10.30;;;256.80;1996.80;;;;;;4899772;29;20112;-64
2021/11/10 08:12:47;;;;;;;12.07;9.32;;;256.90;1996.80;;;;;;4899922;29;20048;-64
2021/11/10 08:15:15;;;;;;;17.45;10.50;;;256.90;1996.80;;;;;;4899790;29;20052;-64
2021/11/10 08:17:41;;;;;;;17.48;11.70;;;281.60;2022.40;;;;;;4899293;29;20036;-63
2021/11/10 08:20:18;;;;;;;13.93;10.07;;;281.80;2022.40;;;;;;4899087;29;20096;-64
2021/11/10 08:22:45;;;;;;;13.52;10.30;;;281.80;2022.40;;;;;;4899530;29;20484;-63
2021/11/10 08:25:13;;;;;;;14.90;11.30;;;282.00;1996.80;;;;;;4899516;29;20348;-63
2021/11/10 08:27:39;;;;;;;22.25;14.88;;;282.10;1971.20;;;;;;4899104;29;20024;-63
2021/11/10 08:30:09;;;;;;;22.30;13.23;;;282.10;1996.80;;;;;;4898787;29;20029;-64
2021/11/10 08:32:35;;;;;;;18.80;12.95;;;282.30;1971.20;;;;;;4899147;29;20425;-63
2021/11/10 08:35:02;;;;;;;31.95;18.67;;;282.40;1996.80;;;;;;4899258;29;20044;-64
2021/11/10 08:37:29;;;;;;;23.17;14.88;;;282.50;1971.20;;;;;;4898579;29;20040;-63
2021/11/10 08:39:54;;;;;;;17.10;11.85;;;307.30;1971.20;;;;;;4899143;29;20029;-64
2021/11/10 08:42:20;;;;;;;20.17;9.85;;;307.40;1971.20;;;;;;4899069;29;20119;-63
2021/11/10 08:44:51;;;;;;;22.48;13.55;;;307.40;1971.20;;;;;;4899178;29;20034;-63
2021/11/10 08:47:19;;;;;;;23.88;13.48;;;307.50;1945.60;;;;;;4898987;29;20475;-63
2021/11/10 08:49:45;;;;;;;18.60;12.32;;;307.70;1945.60;;;;;;4898690;29;20107;-63
2021/11/10 08:52:11;;;;;;;16.52;11.27;;;307.80;1945.60;;;;;;4898924;29;20063;-63
2021/11/10 08:54:37;;;;;;;18.70;11.88;;;307.80;1945.60;;;;;;4899175;29;20025;-64
2021/11/10 08:57:04;;;;;;;21.42;13.20;;;307.90;1920.00;;;;;;4898794;29;20047;-63
2021/11/10 08:59:31;;;;;;;15.57;11.10;;;308.00;1920.00;;;;;;4898986;29;20077;-63
2021/11/10 09:01:57;;;;;;;14.57;10.63;;;308.10;1868.80;;;;;;4897573;29;20091;-63
2021/11/10 09:04:24;;;;;;;14.18;9.63;;;308.10;1894.40;;;;;;4897289;29;20053;-63
2021/11/10 09:06:50;;;;;;;12.70;9.43;;;332.80;1894.40;;;;;;4897154;29;20099;-63
2021/11/10 09:09:17;;;;;;;12.43;8.27;;;332.90;1868.80;;;;;;4897178;29;20107;-64
2021/11/10 09:11:48;;;;;;;9.65;6.75;;;333.00;1868.80;;;;;;4897349;29;20475;-63
2021/11/10 09:14:14;;;;;;;7.97;6.60;;;333.00;1843.20;;;;;;4897809;29;20052;-64
2021/11/10 09:16:40;;;;;;;8.15;6.35;;;333.10;1843.20;;;;;;4898071;29;20025;-64
2021/11/10 09:19:06;;;;;;;11.35;6.38;;;333.10;1843.20;;;;;;4897712;29;20031;-63
2021/11/10 09:21:32;;;;;;;17.10;6.15;;;333.20;1843.20;;;;;;4897606;29;20048;-65
2021/11/10 09:23:58;;;;;;;41.35;7.15;;;333.30;1843.20;;;;;;4898844;29;20352;-71
2021/11/10 09:26:24;;;;;;;18.17;9.20;;;333.30;1843.20;;;;;;4897862;29;20032;-69
2021/11/10 09:28:50;;;;;;;11.50;6.15;;;333.40;1817.60;;;;;;4897860;29;20032;-72
2021/11/10 09:31:16;;;;;;;7.38;5.40;;;333.50;1817.60;;;;;;4897879;29;20032;-70
2021/11/10 09:33:44;;;;;;;9.48;6.10;;;333.50;1817.60;;;;;;4897736;29;20028;-72
2021/11/10 09:36:11;;;;;;;9.70;7.10;;;333.50;1817.60;;;;;;4880782;29;20450;-63
2021/11/10 09:38:37;;;;;;;7.65;6.03;;;333.50;1817.60;;;;;;4897733;29;20024;-63
2021/11/10 09:41:04;;;;;;;7.63;5.32;;;333.70;1817.60;;;;;;4880820;29;20188;-63
2021/11/10 09:43:38;;;;;;;8.52;5.10;;;333.70;1792.00;;;;;;4897497;29;20020;-62
2021/11/10 09:46:05;;;;;;;8.47;5.23;;;358.40;1792.00;;;;;;4897645;29;20020;-63
2021/11/10 09:48:31;;;;;;;8.60;5.15;;;358.40;1792.00;;;;;;4898510;29;20037;-62
2021/11/10 09:50:57;;;;;;;4.70;3.05;;;358.40;1766.40;;;;;;4901980;29;20063;-62
2021/11/10 09:53:23;;;;;;;5.65;2.78;;;358.40;1740.80;;;;;;4902245;29;20032;-72
2021/11/10 09:55:51;;;;;;;9.75;2.90;;;358.40;1740.80;;;;;;4902060;29;20029;-73
2021/11/10 09:58:17;;;;;;;4.05;2.70;;;358.40;1740.80;;;;;;4902265;29;20111;-69
2021/11/10 10:00:48;;;;;;;7.32;2.72;;;358.60;1715.20;;;;;;4902171;29;20028;-62
2021/11/10 10:03:18;;;;;;;8.13;3.45;;;358.60;1715.20;;;;;;4902070;29;20076;-70
2021/11/10 10:05:46;;;;;;;4.80;3.42;;;358.60;1715.20;;;;;;4901847;29;20106;-63
2021/11/10 10:08:14;;;;;;;6.35;3.60;;;358.70;1689.60;;;;;;4902126;29;20093;-63
2021/11/10 10:10:40;;;;;;;10.40;3.75;;;358.80;1689.60;;;;;;4901914;29;20025;-70
2021/11/10 10:13:07;;;;;;;4.80;3.03;;;358.80;1689.60;;;;;;4901982;29;20056;-72
2021/11/10 10:15:36;;;;;;;5.68;2.97;;;358.80;1689.60;;;;;;4902113;29;20033;-71
2021/11/10 10:18:11;;;;;;;5.93;2.47;;;358.90;1664.00;;;;;;4901870;29;20390;-71
2021/11/10 10:20:38;;;;;;;4.22;2.40;;;358.90;1664.00;;;;;;4901204;29;20028;-71
2021/11/10 10:23:16;;;;;;;5.28;2.70;;;359.00;1664.00;;;;;;4901743;29;20116;-72
2021/11/10 10:25:50;;;;;;;5.97;3.78;;;359.00;1664.00;;;;;;4901835;29;20037;-72
2021/11/10 10:28:23;;;;;;;7.65;3.30;;;359.10;1638.40;;;;;;4901790;29;20056;-72
2021/11/10 10:30:55;;;;;;;4.80;3.58;;;359.10;1638.40;;;;;;4901770;29;20017;-72
2021/11/10 10:33:27;;;;;;;8.18;5.40;;;359.10;1638.40;;;;;;4901947;29;20025;-72
2021/11/10 10:36:04;;;;;;;6.45;4.47;;;359.10;1638.40;;;;;;4901571;29;20419;-72
2021/11/10 10:38:35;;;;;;;6.88;5.05;;;359.20;1638.40;;;;;;4901647;29;20395;-70
2021/11/10 10:41:02;;;;;;;12.90;7.97;;;359.30;1664.00;;;;;;4901340;29;20530;-73
2021/11/10 10:43:29;;;;;;;17.13;10.13;;;384.00;1638.40;;;;;;4901195;29;20040;-64
2021/11/10 10:45:57;;;;;;;18.33;8.63;;;384.00;1612.80;;;;;;4900911;29;20425;-72
2021/11/10 10:48:26;;;;;;;31.08;16.55;;;384.00;1587.20;;;;;;4901447;29;20161;-72
2021/11/10 10:50:55;;;;;;;17.05;10.43;;;384.10;1587.20;;;;;;4901206;29;20041;-72
2021/11/10 10:53:33;;;;;;;16.50;9.32;;;384.10;1587.20;;;;;;4901387;29;20025;-72
2021/11/10 10:56:00;;;;;;;10.57;6.53;;;384.10;1612.80;;;;;;4901130;29;20160;-71
2021/11/10 10:58:35;;;;;;;11.68;7.63;;;384.10;1587.20;;;;;;4901541;29;20554;-72
2021/11/10 11:01:19;;;;;;;16.77;10.32;;;384.20;1587.20;;;;;;4900310;29;20021;-72
2021/11/10 11:04:04;;;;;;;14.30;9.57;;;384.20;1587.20;;;;;;4901147;29;20501;-72
2021/11/10 11:06:39;;;;;;;23.90;13.90;;;384.20;1587.20;;;;;;4901459;29;20032;-64
2021/11/10 11:09:15;;;;;;;23.10;14.90;;;384.20;1587.20;;;;;;4901000;29;20024;-71
2021/11/10 11:12:11;;;;;;;26.25;16.50;;;384.20;1561.60;;;;;;4901141;29;20032;-72
2021/11/10 11:15:02;;;;;;;16.58;10.93;;;384.30;1561.60;;;;;;4901171;29;20075;-72
2021/11/10 11:17:29;;;;;;;15.57;8.60;;;384.20;1561.60;;;;;;4900846;29;20036;-72
2021/11/10 11:20:10;;;;;;;17.83;8.60;;;384.30;1587.20;;;;;;4900994;29;20035;-63
2021/11/10 11:22:53;;;;;;;17.42;9.90;;;384.30;1587.20;;;;;;4900569;29;20059;-72
2021/11/10 11:25:20;;;;;;;14.05;10.32;;;384.30;1587.20;;;;;;4901025;29;20033;-71
2021/11/10 11:27:54;;;;;;;27.55;10.23;;;384.40;1587.20;;;;;;4900521;29;20109;-72
2021/11/10 11:30:22;;;;;;;8.40;6.82;;;384.40;1587.20;;;;;;4900757;29;20092;-72
2021/11/10 11:32:50;;;;;;;8.90;5.82;;;384.40;1561.60;;;;;;4900632;29;20094;-71
2021/11/10 11:35:31;;;;;;;11.13;6.60;;;384.40;1561.60;;;;;;4900290;29;20032;-71
2021/11/10 11:38:09;;;;;;;10.60;6.15;;;384.40;1536.00;;;;;;4900210;29;20043;-73
2021/11/10 11:40:42;;;;;;;7.43;5.80;;;384.40;1536.00;;;;;;4900504;29;20044;-65
2021/11/10 11:43:10;;;;;;;9.68;7.00;;;384.40;1536.00;;;;;;4900241;29;20037;-73
2021/11/10 11:45:41;;;;;;;15.13;9.75;;;384.40;1536.00;;;;;;4900118;29;20053;-68
2021/11/10 11:48:08;;;;;;;11.40;7.90;;;384.50;1536.00;;;;;;4900336;29;20025;-64
2021/11/10 11:50:35;;;;;;;8.77;6.63;;;384.40;1536.00;;;;;;4899935;29;20542;-72
2021/11/10 11:53:02;;;;;;;10.40;7.47;;;384.40;1536.00;;;;;;4899999;29;20028;-64
2021/11/10 11:55:59;;;;;;;9.20;5.90;;;384.50;1536.00;;;;;;4900190;29;20029;-73
2021/11/10 11:58:29;;;;;;;9.95;5.72;;;384.50;1510.40;;;;;;4860437;29;20496;-72
2021/11/10 12:01:03;;;;;;;9.68;6.05;;;384.40;1510.40;;;;;;4860674;29;20086;-69
2021/11/10 12:03:30;;;;;;;;;;;384.40;1536.00;;;;;;4861194;29;20074;-71